Terminal Aerodrome Forecast
Issued by NWS Sterling, VA

Current Version | Previous Version | Graphics & Text | Print | Product List | Glossary On
Versions: 1 2 3 4 5 6 7 8 9 10 11 12 13 14 15 16 17 18 19 20 21 22 23
000
FTUS41 KLWX 050540
TAFMRB
TAF
KMRB 050540Z 0506/0606 00000KT 3SM BR BKN200
     FM050800 00000KT 1/4SM FG BKN200
     FM051300 00000KT 3SM BR SCT200
     FM051400 00000KT P6SM SCT200
     FM052100 VRB03KT P6SM BKN050=

USA.gov is the U.S. government's official web portal to all federal, state and local government web resources and services.